Time;durP1;ratioP1;P1;durP2;ratioP2;P2;SDS_P1;SDS_P2;PMS_P1;PMS_P2;Temp;Humidity;BMP_temperature;BMP_pressure;BME280_temperature;BME280_humidity;BME280_pressure;Samples;Min_cycle;Max_cycle;Signal;HPM_P1;HPM_P2
2024/04/03 00:00:30;;;;;;;3.75;1.80;;;11.50;99.90;;;;;;5110180;27;20167;-28
2024/04/03 00:02:55;;;;;;;1.92;1.50;;;11.50;99.90;;;;;;5112094;27;20856;-27
2024/04/03 00:05:21;;;;;;;2.70;1.70;;;11.60;99.90;;;;;;5107247;27;20028;-29
2024/04/03 00:07:46;;;;;;;2.22;1.67;;;11.60;99.90;;;;;;5112929;27;20024;-27
2024/04/03 00:10:12;;;;;;;3.08;1.83;;;11.60;99.90;;;;;;5105531;27;20055;-29
2024/04/03 00:12:39;;;;;;;5.13;2.08;;;11.60;99.90;;;;;;5122954;27;20074;-29
2024/04/03 00:15:05;;;;;;;2.60;1.70;;;11.60;99.90;;;;;;5122162;27;20033;-28
2024/04/03 00:17:30;;;;;;;2.85;1.65;;;11.60;99.90;;;;;;5113488;27;20027;-28
2024/04/03 00:19:59;;;;;;;3.58;1.80;;;11.60;99.90;;;;;;5124337;27;20054;-28
2024/04/03 00:22:24;;;;;;;1.77;1.55;;;11.60;99.90;;;;;;5111846;27;20027;-27
2024/04/03 00:24:50;;;;;;;2.95;1.70;;;11.60;99.90;;;;;;5124196;27;20030;-27
2024/04/03 00:27:15;;;;;;;3.25;1.83;;;11.60;99.90;;;;;;5110888;27;20055;-27
2024/04/03 00:29:48;;;;;;;3.33;1.73;;;11.60;99.90;;;;;;5124385;27;20477;-27
2024/04/03 00:32:13;;;;;;;3.13;1.73;;;11.60;99.90;;;;;;5111435;27;20038;-28
2024/04/03 00:34:42;;;;;;;4.32;1.88;;;11.60;99.90;;;;;;5124317;27;20027;-28
2024/04/03 00:37:09;;;;;;;4.55;1.77;;;11.60;99.90;;;;;;5113687;27;20201;-30
2024/04/03 00:39:34;;;;;;;2.03;1.50;;;11.60;99.90;;;;;;5106181;27;20026;-27
2024/04/03 00:42:01;;;;;;;2.38;1.60;;;11.60;99.90;;;;;;5111074;27;20023;-27
2024/04/03 00:44:34;;;;;;;2.13;1.63;;;11.50;99.90;;;;;;5107562;27;20807;-28
2024/04/03 00:47:01;;;;;;;2.20;1.63;;;11.50;99.90;;;;;;5109551;27;20027;-28
2024/04/03 00:49:27;;;;;;;3.13;1.83;;;11.60;99.90;;;;;;5110554;27;20019;-27
2024/04/03 00:51:56;;;;;;;1.83;1.73;;;11.60;99.90;;;;;;5106584;27;20139;-30
2024/04/03 00:54:22;;;;;;;2.70;2.08;;;11.60;99.90;;;;;;5112546;27;20032;-27
2024/04/03 00:56:48;;;;;;;3.00;1.70;;;11.60;99.90;;;;;;5104102;27;20028;-27
2024/04/03 00:59:18;;;;;;;1.85;1.60;;;11.60;99.90;;;;;;5114716;27;20722;-27
2024/04/03 01:01:43;;;;;;;2.03;1.80;;;11.60;99.90;;;;;;5105262;27;20083;-27
2024/04/03 01:04:09;;;;;;;2.00;1.90;;;11.60;99.90;;;;;;5113818;27;20028;-27
2024/04/03 01:06:35;;;;;;;1.98;1.77;;;11.60;99.90;;;;;;5103799;27;20090;-28
2024/04/03 01:09:01;;;;;;;1.83;1.63;;;11.60;99.90;;;;;;5115498;27;20551;-28
2024/04/03 01:11:26;;;;;;;3.55;2.15;;;11.60;99.90;;;;;;5102228;28;20043;-27
2024/04/03 01:13:52;;;;;;;2.38;2.17;;;11.60;99.90;;;;;;5104723;27;20024;-28
2024/04/03 01:16:18;;;;;;;2.40;2.10;;;11.60;99.90;;;;;;5103492;28;20018;-27
2024/04/03 01:18:43;;;;;;;2.38;2.08;;;11.60;99.90;;;;;;5114519;27;20023;-28
2024/04/03 01:21:09;;;;;;;2.13;1.85;;;11.60;99.90;;;;;;5103504;27;20111;-28
2024/04/03 01:23:34;;;;;;;2.10;1.90;;;11.60;99.90;;;;;;5112265;27;20171;-28
2024/04/03 01:26:00;;;;;;;2.20;2.00;;;11.60;99.90;;;;;;5106414;27;20031;-29
2024/04/03 01:28:38;;;;;;;2.03;1.85;;;11.60;99.90;;;;;;5115542;27;20035;-37
2024/04/03 01:31:03;;;;;;;2.63;1.70;;;11.60;99.90;;;;;;5107824;27;20046;-29
2024/04/03 01:33:29;;;;;;;2.25;1.63;;;11.60;99.90;;;;;;5108318;27;20835;-30
2024/04/03 01:35:54;;;;;;;1.80;1.38;;;11.60;99.90;;;;;;5110721;27;20134;-28
2024/04/03 01:38:20;;;;;;;2.17;1.30;;;11.50;99.90;;;;;;5109203;27;20110;-28
2024/04/03 01:40:45;;;;;;;1.80;1.42;;;11.50;99.90;;;;;;5109059;27;20038;-30
2024/04/03 01:43:11;;;;;;;1.70;1.40;;;11.50;99.90;;;;;;5103631;27;20091;-30
2024/04/03 01:45:36;;;;;;;1.20;1.10;;;11.50;99.90;;;;;;5114400;27;20043;-28
2024/04/03 01:48:02;;;;;;;1.42;1.20;;;11.50;99.90;;;;;;5103922;27;20031;-28
2024/04/03 01:50:39;;;;;;;1.23;1.13;;;11.50;99.90;;;;;;5114542;27;20028;-27
2024/04/03 01:53:05;;;;;;;2.17;1.30;;;11.50;99.90;;;;;;5101954;28;20126;-29
2024/04/03 01:55:33;;;;;;;1.50;1.40;;;11.50;99.90;;;;;;5115311;27;20068;-27
2024/04/03 01:57:59;;;;;;;1.50;1.40;;;11.60;99.90;;;;;;5102815;28;20062;-27
2024/04/03 02:00:24;;;;;;;1.50;1.35;;;11.60;99.90;;;;;;5114242;27;20019;-27
2024/04/03 02:02:50;;;;;;;1.30;1.20;;;11.60;99.90;;;;;;5102327;28;20024;-28
2024/04/03 02:05:15;;;;;;;1.50;1.35;;;11.60;99.90;;;;;;5113678;27;20058;-27
2024/04/03 02:07:41;;;;;;;1.48;1.38;;;11.60;99.90;;;;;;5103064;27;20023;-28
2024/04/03 02:10:07;;;;;;;3.42;1.60;;;11.60;99.90;;;;;;5110136;27;20433;-27
2024/04/03 02:12:32;;;;;;;2.50;1.58;;;11.60;99.90;;;;;;5105687;27;20852;-28
2024/04/03 02:14:58;;;;;;;2.13;1.70;;;11.60;99.90;;;;;;5107654;27;20027;-27
2024/04/03 02:17:23;;;;;;;2.65;1.95;;;11.60;99.90;;;;;;5108534;27;21034;-27
2024/04/03 02:19:49;;;;;;;1.73;1.52;;;11.50;99.90;;;;;;5105230;27;20089;-40
2024/04/03 02:22:18;;;;;;;1.30;1.20;;;11.50;99.90;;;;;;5110178;27;20508;-28
2024/04/03 02:24:43;;;;;;;1.35;1.25;;;11.50;99.90;;;;;;5103296;27;20499;-27
2024/04/03 02:27:09;;;;;;;1.20;1.13;;;11.50;99.90;;;;;;5112964;27;20027;-28
2024/04/03 02:29:34;;;;;;;1.42;1.00;;;11.50;99.90;;;;;;5103335;27;20026;-28
2024/04/03 02:32:00;;;;;;;2.03;1.35;;;11.40;99.90;;;;;;5113740;27;20162;-27
2024/04/03 02:34:25;;;;;;;1.48;1.05;;;11.40;99.90;;;;;;5102044;28;20027;-28
2024/04/03 02:36:51;;;;;;;0.63;0.63;;;11.40;99.90;;;;;;5114325;27;20024;-28
2024/04/03 02:39:16;;;;;;;1.98;0.90;;;11.40;99.90;;;;;;5113645;27;20101;-28
2024/04/03 02:41:42;;;;;;;1.58;0.82;;;11.50;99.90;;;;;;5109508;27;20039;-28
2024/04/03 02:44:11;;;;;;;1.05;0.93;;;11.40;99.90;;;;;;5121621;27;20023;-28
2024/04/03 02:46:36;;;;;;;1.65;1.00;;;11.50;99.90;;;;;;5110833;27;20046;-29
2024/04/03 02:49:02;;;;;;;1.35;0.98;;;11.50;99.90;;;;;;5120581;27;20035;-29
2024/04/03 02:51:27;;;;;;;1.00;0.95;;;11.50;99.90;;;;;;5112357;27;20074;-28
2024/04/03 02:53:53;;;;;;;1.27;1.13;;;11.50;99.90;;;;;;5117819;27;20023;-28
2024/04/03 02:56:19;;;;;;;1.42;1.10;;;11.50;99.90;;;;;;5115424;27;20130;-28
2024/04/03 02:58:47;;;;;;;2.30;1.00;;;11.50;99.90;;;;;;5114902;27;20864;-28
2024/04/03 03:01:13;;;;;;;1.77;1.15;;;11.50;99.90;;;;;;5118056;27;20102;-29
2024/04/03 03:03:41;;;;;;;1.80;0.77;;;11.50;99.90;;;;;;5112402;27;20035;-29
2024/04/03 03:06:07;;;;;;;1.13;0.82;;;11.50;99.90;;;;;;5120412;27;20016;-28
2024/04/03 03:08:34;;;;;;;1.60;1.00;;;11.50;99.90;;;;;;5111256;27;20035;-28
2024/04/03 03:11:02;;;;;;;1.30;0.95;;;11.50;99.90;;;;;;5120207;27;20015;-28
2024/04/03 03:13:29;;;;;;;1.88;1.20;;;11.50;99.90;;;;;;5111364;27;20023;-29
2024/04/03 03:15:55;;;;;;;1.65;1.20;;;11.50;99.90;;;;;;5122032;27;20015;-28
2024/04/03 03:18:22;;;;;;;1.25;1.10;;;11.50;99.90;;;;;;5109495;27;20103;-29
2024/04/03 03:20:51;;;;;;;1.30;1.20;;;11.50;99.90;;;;;;5121586;27;20151;-29
2024/04/03 03:23:17;;;;;;;1.00;0.90;;;11.50;99.90;;;;;;5108309;27;20546;-28
2024/04/03 03:25:44;;;;;;;1.45;1.00;;;11.50;99.90;;;;;;5121270;27;20553;-28
2024/04/03 03:28:11;;;;;;;1.58;1.00;;;11.50;99.90;;;;;;5108012;27;20096;-28
2024/04/03 03:30:36;;;;;;;1.52;1.10;;;11.50;99.90;;;;;;5122599;27;20110;-28
2024/04/03 03:33:02;;;;;;;1.40;1.00;;;11.50;99.90;;;;;;5110417;27;20028;-28
2024/04/03 03:35:28;;;;;;;1.95;1.20;;;11.50;99.90;;;;;;5118028;27;20023;-28
2024/04/03 03:37:53;;;;;;;2.25;0.90;;;11.50;99.90;;;;;;5113790;28;20020;-28
2024/04/03 03:40:19;;;;;;;3.85;1.10;;;11.50;99.90;;;;;;5120593;28;20526;-28
2024/04/03 03:42:45;;;;;;;1.45;1.08;;;11.50;99.90;;;;;;5116998;27;20027;-29
2024/04/03 03:45:18;;;;;;;2.67;1.20;;;11.50;99.90;;;;;;5108042;28;20032;-29
2024/04/03 03:47:44;;;;;;;1.55;0.98;;;11.40;99.90;;;;;;5103268;28;20031;-30
2024/04/03 03:52:54;;;;;;;1.42;1.02;;;11.50;99.90;;;;;;5102767;28;20051;-29
2024/04/03 03:55:20;;;;;;;2.13;1.00;;;11.50;99.90;;;;;;5109378;28;20027;-29
2024/04/03 03:57:45;;;;;;;1.40;1.02;;;11.50;99.90;;;;;;5102051;28;20031;-29
2024/04/03 04:00:11;;;;;;;1.58;1.23;;;11.50;99.90;;;;;;5110445;28;20020;-29
2024/04/03 04:02:37;;;;;;;1.52;1.23;;;11.50;99.90;;;;;;5101660;28;20027;-29
2024/04/03 04:05:05;;;;;;;1.00;0.90;;;11.50;99.90;;;;;;5111272;28;20055;-29
2024/04/03 04:07:32;;;;;;;1.73;1.20;;;11.50;99.90;;;;;;5098602;28;20026;-28
2024/04/03 04:10:00;;;;;;;1.10;1.00;;;11.40;99.90;;;;;;5116027;28;20019;-28
2024/04/03 04:12:26;;;;;;;1.92;1.00;;;11.50;99.90;;;;;;5098980;28;20046;-28
2024/04/03 04:14:52;;;;;;;1.17;1.08;;;11.40;99.90;;;;;;5111103;28;20388;-29
2024/04/03 04:17:22;;;;;;;1.23;1.00;;;11.50;99.90;;;;;;5099337;28;20112;-28
2024/04/03 04:19:51;;;;;;;2.85;1.20;;;11.40;99.90;;;;;;5110527;28;20045;-29
2024/04/03 04:22:17;;;;;;;1.90;1.00;;;11.40;99.90;;;;;;5099504;27;20080;-29
2024/04/03 04:24:45;;;;;;;2.30;1.25;;;11.40;99.90;;;;;;5109714;28;20016;-29
2024/04/03 04:27:12;;;;;;;1.17;0.98;;;11.40;99.90;;;;;;5102208;27;20144;-27
2024/04/03 04:29:40;;;;;;;2.17;1.02;;;11.40;99.90;;;;;;5107119;28;20019;-28
2024/04/03 04:32:09;;;;;;;2.42;1.00;;;11.40;99.90;;;;;;5104127;27;20584;-27
2024/04/03 04:34:39;;;;;;;2.08;1.00;;;11.40;99.90;;;;;;5106254;28;20138;-28
2024/04/03 04:37:05;;;;;;;2.40;1.10;;;11.40;99.90;;;;;;5105722;27;20072;-27
2024/04/03 04:39:31;;;;;;;1.52;1.02;;;11.40;99.90;;;;;;5108898;28;20049;-27
2024/04/03 04:41:57;;;;;;;1.00;0.90;;;11.40;99.90;;;;;;5111107;28;20558;-27
2024/04/03 04:44:23;;;;;;;2.30;1.10;;;11.40;99.90;;;;;;5119298;27;20019;-27
2024/04/03 04:46:53;;;;;;;2.08;1.20;;;11.40;99.90;;;;;;5110828;27;20023;-27
2024/04/03 04:49:19;;;;;;;1.33;1.00;;;11.30;99.90;;;;;;5122314;27;20032;-28
2024/04/03 04:51:45;;;;;;;1.10;1.00;;;11.30;99.90;;;;;;5112782;27;20386;-28
2024/04/03 04:54:12;;;;;;;1.63;1.00;;;11.30;99.90;;;;;;5123832;27;20030;-27
2024/04/03 04:56:38;;;;;;;1.40;0.90;;;11.30;99.90;;;;;;5111899;27;20030;-27
2024/04/03 04:59:04;;;;;;;1.45;1.00;;;11.40;99.90;;;;;;5124166;27;20015;-28
2024/04/03 05:01:33;;;;;;;1.20;0.88;;;11.40;99.90;;;;;;5111539;27;20762;-28
2024/04/03 05:03:59;;;;;;;1.40;1.20;;;11.40;99.90;;;;;;5124822;27;20011;-28
2024/04/03 05:06:25;;;;;;;1.83;1.40;;;11.40;99.90;;;;;;5120712;27;20220;-27
2024/04/03 05:08:51;;;;;;;1.60;1.05;;;11.30;99.90;;;;;;5104144;27;20037;-32
2024/04/03 05:11:16;;;;;;;2.13;1.00;;;11.30;99.90;;;;;;5113425;27;20038;-28
2024/04/03 05:13:42;;;;;;;1.85;1.30;;;11.30;99.90;;;;;;5106291;27;20034;-28
2024/04/03 05:16:09;;;;;;;1.63;1.00;;;11.30;99.90;;;;;;5110089;27;20470;-28
2024/04/03 05:18:35;;;;;;;2.55;1.20;;;11.30;99.90;;;;;;5108242;27;20031;-28
2024/04/03 05:21:01;;;;;;;2.58;1.30;;;11.30;99.90;;;;;;5107907;27;20043;-28
2024/04/03 05:23:29;;;;;;;1.98;1.00;;;11.20;99.90;;;;;;5111259;27;20126;-28
2024/04/03 05:26:06;;;;;;;2.33;1.10;;;11.30;99.90;;;;;;5104833;27;20027;-28
2024/04/03 05:28:35;;;;;;;1.52;1.10;;;11.30;99.90;;;;;;5112348;27;20545;-28
2024/04/03 05:31:07;;;;;;;1.25;1.00;;;11.30;99.90;;;;;;5104224;27;20015;-29
2024/04/03 05:33:37;;;;;;;1.58;1.05;;;11.30;99.90;;;;;;5113326;27;20074;-29
2024/04/03 05:36:04;;;;;;;2.85;1.15;;;11.30;99.90;;;;;;5104500;27;20019;-28
2024/04/03 05:38:31;;;;;;;2.25;1.17;;;11.30;99.90;;;;;;5116795;27;20051;-29
2024/04/03 05:40:58;;;;;;;1.90;1.02;;;11.30;99.90;;;;;;5121850;27;20062;-28
2024/04/03 05:43:24;;;;;;;1.33;1.10;;;11.30;99.90;;;;;;5113993;27;20027;-29
2024/04/03 05:45:55;;;;;;;2.78;1.33;;;11.30;99.90;;;;;;5102455;28;20043;-28
2024/04/03 05:48:24;;;;;;;2.53;1.10;;;11.30;99.90;;;;;;5115892;27;20027;-28
2024/04/03 05:51:08;;;;;;;1.98;1.13;;;11.30;99.90;;;;;;5101031;28;20024;-30
2024/04/03 05:53:35;;;;;;;1.40;1.10;;;11.40;99.90;;;;;;5116499;27;20027;-28
2024/04/03 05:56:02;;;;;;;2.08;0.93;;;11.40;99.90;;;;;;5102020;28;20834;-28
2024/04/03 05:58:28;;;;;;;1.38;1.05;;;11.40;99.90;;;;;;5113894;27;20030;-28
2024/04/03 06:00:55;;;;;;;2.33;1.00;;;11.40;99.90;;;;;;5101542;28;20065;-28
2024/04/03 06:03:27;;;;;;;1.33;0.95;;;11.40;99.90;;;;;;5110019;27;20062;-28
2024/04/03 06:05:57;;;;;;;1.30;0.90;;;11.50;99.90;;;;;;5101623;28;20024;-28
2024/04/03 06:08:23;;;;;;;1.58;1.10;;;11.40;99.90;;;;;;5105094;27;20051;-28
2024/04/03 06:10:52;;;;;;;1.90;0.77;;;11.40;99.90;;;;;;5121128;27;20111;-28
2024/04/03 06:13:18;;;;;;;1.80;0.98;;;11.40;99.90;;;;;;5111385;27;20501;-28
2024/04/03 06:15:46;;;;;;;1.83;1.10;;;11.40;99.90;;;;;;5116771;27;20020;-28
2024/04/03 06:18:12;;;;;;;0.90;0.90;;;11.40;99.90;;;;;;5116954;27;20378;-28
2024/04/03 06:20:38;;;;;;;2.03;1.20;;;11.40;99.90;;;;;;5105472;27;20050;-29
2024/04/03 06:23:03;;;;;;;2.22;1.17;;;11.40;99.90;;;;;;5105116;27;20040;-29
2024/04/03 06:25:29;;;;;;;5.32;1.40;;;11.40;99.90;;;;;;5110516;27;20525;-28
2024/04/03 06:27:55;;;;;;;2.97;1.52;;;11.40;99.90;;;;;;5102950;27;20462;-29
2024/04/03 06:30:21;;;;;;;2.35;1.58;;;11.40;99.90;;;;;;5120312;27;20023;-28
2024/04/03 06:32:47;;;;;;;3.97;1.52;;;11.40;99.90;;;;;;5120626;27;20035;-29
2024/04/03 06:35:13;;;;;;;2.83;1.40;;;11.40;99.90;;;;;;5109714;27;20030;-29
2024/04/03 06:37:40;;;;;;;2.10;1.10;;;11.40;99.90;;;;;;5122132;27;20030;-29
2024/04/03 06:40:09;;;;;;;3.03;1.50;;;11.50;99.90;;;;;;5109206;27;20191;-29
2024/04/03 06:42:35;;;;;;;3.13;1.60;;;11.50;99.90;;;;;;5122059;27;20968;-28
2024/04/03 06:45:02;;;;;;;2.38;1.10;;;11.50;99.90;;;;;;5109760;27;20106;-28
2024/04/03 06:47:28;;;;;;;2.38;1.65;;;11.50;99.90;;;;;;5122316;27;20378;-28
2024/04/03 06:49:57;;;;;;;2.85;1.58;;;11.50;99.90;;;;;;5108045;27;20023;-29
2024/04/03 06:52:26;;;;;;;2.65;1.65;;;11.60;99.90;;;;;;5102488;28;20581;-29
2024/04/03 06:54:54;;;;;;;3.33;1.65;;;11.60;99.90;;;;;;5113213;27;20022;-29
2024/04/03 06:57:21;;;;;;;2.50;1.50;;;11.60;99.90;;;;;;5101791;27;20498;-30
2024/04/03 06:59:46;;;;;;;2.55;1.17;;;11.70;99.90;;;;;;5109728;27;20027;-29
2024/04/03 07:02:12;;;;;;;1.95;1.30;;;11.70;99.90;;;;;;5105193;27;20352;-30
2024/04/03 07:04:37;;;;;;;2.80;1.63;;;11.70;99.90;;;;;;5106901;27;20030;-30
2024/04/03 07:07:04;;;;;;;2.85;1.42;;;11.80;99.90;;;;;;5107793;27;20027;-29
2024/04/03 07:09:30;;;;;;;2.65;1.73;;;11.80;99.90;;;;;;5102377;27;20028;-28
2024/04/03 07:11:55;;;;;;;2.13;1.15;;;11.80;99.90;;;;;;5108285;27;20054;-30
2024/04/03 07:14:21;;;;;;;3.85;1.50;;;11.80;99.90;;;;;;5100324;27;20038;-28
2024/04/03 07:16:47;;;;;;;2.60;1.30;;;11.80;99.90;;;;;;5110218;27;20066;-29
2024/04/03 07:19:13;;;;;;;2.03;1.05;;;11.80;99.90;;;;;;5100402;27;20126;-29
2024/04/03 07:21:41;;;;;;;1.70;1.17;;;11.80;99.90;;;;;;5108131;27;20027;-30
2024/04/03 07:24:08;;;;;;;2.47;1.42;;;11.80;99.90;;;;;;5120173;27;20019;-28
2024/04/03 07:26:36;;;;;;;2.05;1.55;;;11.80;99.90;;;;;;5109967;27;20493;-30
2024/04/03 07:29:02;;;;;;;1.65;1.38;;;11.80;99.90;;;;;;5121698;27;20047;-28
2024/04/03 07:31:27;;;;;;;2.10;1.30;;;11.90;99.90;;;;;;5107486;27;20039;-27
2024/04/03 07:33:53;;;;;;;2.35;1.40;;;11.90;99.90;;;;;;5120645;27;20027;-28
2024/04/03 07:36:21;;;;;;;2.15;1.13;;;11.90;99.90;;;;;;5108682;27;20035;-30
2024/04/03 07:38:47;;;;;;;1.73;1.60;;;12.00;99.90;;;;;;5115316;28;20078;-29
2024/04/03 07:41:31;;;;;;;1.63;1.20;;;12.00;99.90;;;;;;5109067;28;20764;-30
2024/04/03 07:43:56;;;;;;;2.80;1.50;;;12.00;99.90;;;;;;5101944;27;20050;-30
2024/04/03 07:46:24;;;;;;;3.53;1.65;;;12.00;99.90;;;;;;5104742;28;20024;-31
2024/04/03 07:48:49;;;;;;;2.53;1.50;;;12.10;99.90;;;;;;5117747;28;20057;-29
2024/04/03 07:51:15;;;;;;;2.60;1.45;;;12.10;99.90;;;;;;5114371;28;20110;-29
2024/04/03 07:53:42;;;;;;;2.65;1.20;;;12.00;99.90;;;;;;5114564;28;20132;-29
2024/04/03 07:56:07;;;;;;;2.33;1.40;;;12.10;99.90;;;;;;5115483;27;20450;-29
2024/04/03 07:58:34;;;;;;;2.45;1.42;;;12.00;99.90;;;;;;5112495;28;20034;-29
2024/04/03 08:01:00;;;;;;;1.90;1.40;;;12.10;99.90;;;;;;5117391;28;20064;-29
2024/04/03 08:03:26;;;;;;;2.35;1.40;;;12.10;99.90;;;;;;5109135;28;20027;-29
2024/04/03 08:05:53;;;;;;;1.38;0.90;;;12.10;99.90;;;;;;5117813;28;20022;-28
2024/04/03 08:08:20;;;;;;;2.97;1.60;;;12.10;99.90;;;;;;5108832;27;20052;-28
2024/04/03 08:10:45;;;;;;;2.60;1.17;;;12.20;99.90;;;;;;5119853;27;20019;-27
2024/04/03 08:13:12;;;;;;;2.70;1.25;;;12.20;99.90;;;;;;5107093;28;20027;-28
2024/04/03 08:15:37;;;;;;;3.10;1.45;;;12.20;99.90;;;;;;5121386;27;20019;-28
2024/04/03 08:18:03;;;;;;;2.45;1.70;;;12.20;99.90;;;;;;5113418;28;20030;-28
2024/04/03 08:20:29;;;;;;;2.28;1.20;;;12.20;99.90;;;;;;5099375;28;20051;-28
2024/04/03 08:22:54;;;;;;;2.13;1.30;;;12.10;99.90;;;;;;5112920;27;20274;-28
2024/04/03 08:25:20;;;;;;;3.17;1.40;;;12.10;99.90;;;;;;5103517;27;20096;-28
2024/04/03 08:27:53;;;;;;;2.13;1.38;;;12.10;99.90;;;;;;5111372;27;20134;-28
2024/04/03 08:30:20;;;;;;;3.17;1.63;;;12.10;99.90;;;;;;5105051;27;20034;-28
2024/04/03 08:32:45;;;;;;;2.30;1.45;;;12.00;99.90;;;;;;5110740;27;20041;-28
2024/04/03 08:35:11;;;;;;;2.55;1.60;;;12.00;99.90;;;;;;5108049;27;20043;-28
2024/04/03 08:37:37;;;;;;;2.20;1.85;;;12.00;99.90;;;;;;5109257;27;20535;-28
2024/04/03 08:40:03;;;;;;;3.28;1.58;;;12.00;99.90;;;;;;5109958;27;20103;-28
2024/04/03 08:42:29;;;;;;;2.55;1.50;;;12.00;99.90;;;;;;5105894;27;20111;-28
2024/04/03 08:44:57;;;;;;;3.67;1.60;;;12.00;99.90;;;;;;5114033;27;20059;-28
2024/04/03 08:47:24;;;;;;;1.48;1.33;;;12.00;99.90;;;;;;5104744;27;20434;-28
2024/04/03 08:49:53;;;;;;;2.88;1.60;;;12.00;99.90;;;;;;5114147;27;20020;-28
2024/04/03 08:52:23;;;;;;;2.05;1.30;;;12.00;99.90;;;;;;5104812;27;20073;-28
2024/04/03 08:54:51;;;;;;;2.65;1.23;;;12.00;99.90;;;;;;5113515;27;20052;-28
2024/04/03 08:57:16;;;;;;;4.50;1.70;;;12.00;99.90;;;;;;5101925;27;20092;-28
2024/04/03 08:59:45;;;;;;;2.03;1.55;;;12.00;99.90;;;;;;5117447;27;20027;-28
2024/04/03 09:02:13;;;;;;;3.28;1.63;;;12.00;99.90;;;;;;5121489;27;20106;-28
2024/04/03 09:04:38;;;;;;;2.78;1.92;;;12.00;99.90;;;;;;5108974;27;20030;-28
2024/04/03 09:07:04;;;;;;;3.40;1.58;;;12.00;99.90;;;;;;5122430;27;20023;-28
2024/04/03 09:09:31;;;;;;;2.72;1.30;;;12.00;99.90;;;;;;5110986;27;20555;-28
2024/04/03 09:12:05;;;;;;;2.10;1.17;;;12.10;99.90;;;;;;5123036;27;20039;-28
2024/04/03 09:14:31;;;;;;;2.88;1.48;;;12.10;99.90;;;;;;5113161;27;20020;-28
2024/04/03 09:17:04;;;;;;;1.60;1.05;;;12.10;99.90;;;;;;5120420;27;20035;-28
2024/04/03 09:19:31;;;;;;;2.55;1.33;;;12.10;99.90;;;;;;5114195;27;20093;-28
2024/04/03 09:22:01;;;;;;;2.80;1.48;;;12.10;99.90;;;;;;5120094;27;20023;-29
2024/04/03 09:24:31;;;;;;;3.10;1.13;;;12.10;99.90;;;;;;5114910;27;20666;-28
2024/04/03 09:26:58;;;;;;;1.38;1.10;;;12.10;99.90;;;;;;5118720;27;20035;-29
2024/04/03 09:29:44;;;;;;;1.48;1.10;;;12.10;99.90;;;;;;5122239;27;20108;-29
2024/04/03 09:32:10;;;;;;;1.35;1.10;;;12.10;99.90;;;;;;5121649;27;20482;-28
2024/04/03 09:34:36;;;;;;;1.27;0.90;;;12.10;99.90;;;;;;5118630;27;20018;-28
2024/04/03 09:37:05;;;;;;;0.98;0.70;;;12.20;99.90;;;;;;5110004;27;20482;-30
2024/04/03 09:39:30;;;;;;;1.23;1.00;;;12.20;99.90;;;;;;5108397;27;20023;-28
2024/04/03 09:42:04;;;;;;;1.33;1.00;;;12.20;99.90;;;;;;5113692;27;20023;-28
2024/04/03 09:44:37;;;;;;;1.60;1.20;;;12.20;99.90;;;;;;5120872;27;20028;-29
2024/04/03 09:47:11;;;;;;;2.00;1.40;;;12.20;99.90;;;;;;5113482;27;20035;-34
2024/04/03 09:49:41;;;;;;;2.22;1.40;;;12.20;99.90;;;;;;5122574;27;20026;-29
2024/04/03 09:52:10;;;;;;;1.58;1.23;;;12.20;99.90;;;;;;5110243;27;20038;-28
2024/04/03 09:54:36;;;;;;;2.83;1.10;;;12.20;99.90;;;;;;5119110;27;20015;-29
2024/04/03 09:57:04;;;;;;;1.95;1.17;;;12.20;99.90;;;;;;5112893;27;20362;-27
2024/04/03 09:59:30;;;;;;;1.20;1.00;;;12.20;99.90;;;;;;5102545;27;20036;-28
2024/04/03 10:01:56;;;;;;;2.10;0.95;;;12.30;99.90;;;;;;5118684;27;20034;-28
2024/04/03 10:04:22;;;;;;;0.85;0.80;;;12.30;99.90;;;;;;5122411;27;20668;-28
2024/04/03 10:06:49;;;;;;;1.23;1.02;;;12.30;99.90;;;;;;5108867;27;20066;-28
2024/04/03 10:09:23;;;;;;;1.38;1.10;;;12.40;99.90;;;;;;5122823;27;20039;-28
2024/04/03 10:11:53;;;;;;;1.40;0.88;;;12.40;99.90;;;;;;5120246;27;20610;-29
2024/04/03 10:14:47;;;;;;;0.98;0.95;;;12.40;99.90;;;;;;5121401;27;20031;-27
2024/04/03 10:17:15;;;;;;;1.60;1.23;;;12.40;99.90;;;;;;5108727;27;20027;-28
2024/04/03 10:19:42;;;;;;;1.98;1.10;;;12.50;99.90;;;;;;5121291;27;20164;-28
2024/04/03 10:22:14;;;;;;;0.82;0.75;;;12.50;99.90;;;;;;5108441;27;20096;-28
2024/04/03 10:24:45;;;;;;;1.15;1.05;;;12.60;99.90;;;;;;5122492;27;20386;-28
2024/04/03 10:27:11;;;;;;;1.85;1.60;;;12.70;99.90;;;;;;5107592;27;20059;-27
2024/04/03 10:29:37;;;;;;;1.38;1.23;;;12.80;99.90;;;;;;5122858;27;20038;-29
2024/04/03 10:32:03;;;;;;;2.50;1.23;;;12.90;99.90;;;;;;5111405;27;20394;-29
2024/04/03 10:34:40;;;;;;;1.40;1.08;;;13.00;99.90;;;;;;5119554;27;20583;-29
2024/04/03 10:37:10;;;;;;;1.80;1.10;;;13.10;99.90;;;;;;5112444;27;20100;-29
2024/04/03 10:39:36;;;;;;;1.13;1.00;;;13.20;99.90;;;;;;5110372;27;20027;-29
2024/04/03 10:42:04;;;;;;;1.00;1.00;;;13.20;99.90;;;;;;5107540;27;20075;-29
2024/04/03 10:44:29;;;;;;;1.35;1.23;;;13.20;99.90;;;;;;5106841;27;20023;-28
2024/04/03 10:47:09;;;;;;;1.45;1.17;;;13.20;99.90;;;;;;5105985;27;20470;-29
2024/04/03 10:49:35;;;;;;;1.30;1.00;;;13.20;99.90;;;;;;5106283;27;20081;-28
2024/04/03 10:52:01;;;;;;;0.90;0.90;;;13.20;99.90;;;;;;5104728;27;20797;-28
2024/04/03 10:54:27;;;;;;;0.80;0.80;;;13.20;99.90;;;;;;5108838;27;20032;-28
2024/04/03 10:56:52;;;;;;;1.73;1.30;;;13.20;99.90;;;;;;5102285;27;20128;-29
2024/04/03 10:59:18;;;;;;;1.60;1.00;;;13.30;99.90;;;;;;5112458;27;20028;-29
2024/04/03 11:01:44;;;;;;;0.90;0.90;;;13.30;99.90;;;;;;5102173;28;20032;-29
2024/04/03 11:04:11;;;;;;;2.47;1.20;;;13.30;99.90;;;;;;5111936;27;20465;-29
2024/04/03 11:06:42;;;;;;;1.05;0.93;;;13.40;99.90;;;;;;5101372;28;20239;-29
2024/04/03 11:09:11;;;;;;;0.80;0.80;;;13.40;99.90;;;;;;5106110;27;20019;-32
2024/04/03 11:11:41;;;;;;;1.70;0.90;;;13.50;99.90;;;;;;5123001;27;20027;-28
2024/04/03 11:14:07;;;;;;;0.90;0.90;;;13.40;99.90;;;;;;5109158;27;20034;-28
2024/04/03 11:16:32;;;;;;;1.50;1.05;;;13.50;99.90;;;;;;5122183;27;20382;-29
2024/04/03 11:18:58;;;;;;;1.02;1.00;;;13.50;99.90;;;;;;5119789;27;20047;-28
2024/04/03 11:21:23;;;;;;;0.90;0.80;;;13.50;99.90;;;;;;5102499;28;20745;-28
2024/04/03 11:23:50;;;;;;;1.48;0.93;;;13.50;99.90;;;;;;5112080;27;20166;-29
2024/04/03 11:26:15;;;;;;;0.85;0.70;;;13.50;99.90;;;;;;5103111;28;20131;-29
2024/04/03 11:28:41;;;;;;;0.73;0.73;;;13.50;99.90;;;;;;5109581;27;20042;-29
2024/04/03 11:31:06;;;;;;;0.90;0.90;;;13.50;99.90;;;;;;5104335;27;20047;-45
2024/04/03 11:33:32;;;;;;;2.47;1.08;;;13.60;99.90;;;;;;5106698;28;20448;-29
2024/04/03 11:35:58;;;;;;;0.95;0.80;;;13.60;99.90;;;;;;5108696;27;20152;-28
2024/04/03 11:38:25;;;;;;;0.82;0.82;;;13.70;99.90;;;;;;5103389;28;20032;-28
2024/04/03 11:40:51;;;;;;;1.50;1.00;;;13.60;99.90;;;;;;5102742;27;20027;-27
2024/04/03 11:43:16;;;;;;;1.10;1.00;;;13.70;99.90;;;;;;5104484;28;20034;-28
2024/04/03 11:45:42;;;;;;;1.63;0.88;;;13.60;99.90;;;;;;5109451;28;20461;-28
2024/04/03 11:48:07;;;;;;;1.25;0.90;;;13.60;99.90;;;;;;5119376;28;20083;-29
2024/04/03 11:50:33;;;;;;;1.45;1.05;;;13.70;99.90;;;;;;5109781;28;20059;-28
2024/04/03 11:53:01;;;;;;;2.10;0.90;;;13.70;99.90;;;;;;5120586;28;20535;-28
2024/04/03 11:55:27;;;;;;;0.82;0.80;;;13.70;99.90;;;;;;5108605;27;20729;-28
2024/04/03 11:57:52;;;;;;;1.00;1.00;;;13.70;99.90;;;;;;5124334;27;20019;-28
2024/04/03 12:00:18;;;;;;;1.00;0.82;;;13.70;99.90;;;;;;5111610;27;20077;-28
2024/04/03 12:02:44;;;;;;;0.80;0.80;;;13.70;99.90;;;;;;5104732;28;20478;-29
2024/04/03 12:05:12;;;;;;;1.15;0.70;;;13.70;99.90;;;;;;5113830;27;20092;-28
2024/04/03 12:07:37;;;;;;;0.73;0.70;;;13.70;99.90;;;;;;5106620;27;20034;-28
2024/04/03 12:10:10;;;;;;;2.10;0.80;;;13.60;99.90;;;;;;5112353;27;20023;-28
2024/04/03 12:12:37;;;;;;;2.45;1.05;;;13.60;99.90;;;;;;5107588;27;20044;-28
2024/04/03 12:15:04;;;;;;;1.30;0.90;;;13.60;99.90;;;;;;5110658;27;20038;-29
2024/04/03 12:17:31;;;;;;;1.33;0.80;;;13.60;99.90;;;;;;5111248;27;20733;-28
2024/04/03 12:22:29;;;;;;;0.70;0.70;;;13.50;99.90;;;;;;5116917;27;20115;-28
2024/04/03 12:24:55;;;;;;;0.88;0.88;;;13.60;99.90;;;;;;5121723;27;20022;-28
2024/04/03 12:27:21;;;;;;;0.82;0.82;;;13.60;99.90;;;;;;5114262;27;20035;-28
2024/04/03 12:29:46;;;;;;;0.77;0.70;;;13.60;99.90;;;;;;5123483;27;20405;-28
2024/04/03 12:32:12;;;;;;;0.70;0.70;;;13.70;99.90;;;;;;5112849;27;20703;-28
2024/04/03 12:34:37;;;;;;;1.15;0.75;;;13.70;99.90;;;;;;5123348;27;20053;-28
2024/04/03 12:37:03;;;;;;;0.70;0.70;;;13.70;99.90;;;;;;5108552;27;20030;-28
2024/04/03 12:39:29;;;;;;;0.70;0.70;;;13.70;99.90;;;;;;5111107;27;20027;-28
2024/04/03 12:41:55;;;;;;;0.80;0.80;;;13.70;99.90;;;;;;5109798;27;20051;-28
2024/04/03 12:44:21;;;;;;;0.70;0.70;;;13.70;99.90;;;;;;5124232;27;20030;-27
2024/04/03 12:46:47;;;;;;;0.85;0.80;;;13.70;99.90;;;;;;5111586;27;20036;-28
2024/04/03 12:49:20;;;;;;;1.15;0.82;;;13.70;99.90;;;;;;5122887;27;20030;-27
2024/04/03 12:51:46;;;;;;;0.90;0.90;;;13.70;99.90;;;;;;5113262;27;20028;-28